Time;durP1;ratioP1;P1;durP2;ratioP2;P2;SDS_P1;SDS_P2;PMS_P1;PMS_P2;Temp;Humidity;BMP_temperature;BMP_pressure;BME280_temperature;BME280_humidity;BME280_pressure;Samples;Min_cycle;Max_cycle;Signal;HPM_P1;HPM_P2
2022/10/17 00:01:11;;;;;;;;;;;;;;;16.67;65.43;95986.72;5032932;28;20018;-73
2022/10/17 00:03:37;;;;;;;;;;;;;;;16.62;65.57;95995.72;5042779;28;20017;-74
2022/10/17 00:06:07;;;;;;;;;;;;;;;16.54;65.74;95993.09;5053463;28;20005;-74
2022/10/17 00:08:32;;;;;;;;;;;;;;;16.53;65.99;95996.88;5053025;28;20062;-74
2022/10/17 00:10:59;;;;;;;;;;;;;;;16.54;65.80;95998.47;5053842;28;20396;-74
2022/10/17 00:13:24;;;;;;;;;;;;;;;16.57;65.45;95998.59;5052106;28;20010;-74
2022/10/17 00:15:49;;;;;;;;;;;;;;;16.55;65.59;96000.03;5032519;28;20020;-73
2022/10/17 00:18:15;;;;;;;;;;;;;;;16.56;65.64;95997.03;5037842;28;20036;-73
2022/10/17 00:20:40;;;;;;;;;;;;;;;16.56;65.27;95999.72;5053319;28;20006;-73
2022/10/17 00:23:05;;;;;;;;;;;;;;;16.54;65.21;95995.78;5052016;28;20359;-74
2022/10/17 00:25:30;;;;;;;;;;;;;;;16.51;65.15;95993.72;5053173;28;20442;-73
2022/10/17 00:27:55;;;;;;;;;;;;;;;16.49;65.18;95995.94;5033149;28;20458;-74
2022/10/17 00:30:21;;;;;;;;;;;;;;;16.48;65.24;95994.34;5031266;28;20017;-74
2022/10/17 00:32:46;;;;;;;;;;;;;;;16.42;65.38;95991.06;5033616;28;20410;-76
2022/10/17 00:35:11;;;;;;;;;;;;;;;16.40;65.30;95990.59;5051643;28;20059;-74
2022/10/17 00:37:36;;;;;;;;;;;;;;;16.34;65.36;95987.28;5048969;28;20017;-73
2022/10/17 00:40:02;;;;;;;;;;;;;;;16.31;65.41;96000.56;5030747;28;20075;-74
2022/10/17 00:42:28;;;;;;;;;;;;;;;16.24;65.40;96003.75;5031340;28;20017;-74
2022/10/17 00:44:57;;;;;;;;;;;;;;;16.20;65.73;96000.09;5031588;28;20413;-74
2022/10/17 00:47:23;;;;;;;;;;;;;;;16.20;65.64;96005.47;5031364;28;20009;-74
2022/10/17 00:49:48;;;;;;;;;;;;;;;16.16;65.68;96001.84;5042608;28;20017;-74
2022/10/17 00:52:16;;;;;;;;;;;;;;;16.17;65.72;96005.31;5032202;28;20080;-73
2022/10/17 00:54:47;;;;;;;;;;;;;;;16.09;65.66;96005.03;5032444;28;20168;-74
2022/10/17 00:57:12;;;;;;;;;;;;;;;16.04;65.91;96013.22;5032666;28;20421;-74
2022/10/17 00:59:39;;;;;;;;;;;;;;;16.03;65.99;96008.97;5031066;28;20006;-73
2022/10/17 01:02:22;;;;;;;;;;;;;;;16.04;65.96;96010.56;5030948;28;20056;-73
2022/10/17 01:04:49;;;;;;;;;;;;;;;16.02;65.65;96009.28;5029206;28;20071;-74
2022/10/17 01:07:14;;;;;;;;;;;;;;;15.97;65.52;96002.19;5033060;28;20093;-74
2022/10/17 01:09:40;;;;;;;;;;;;;;;15.93;65.27;96014.66;5032374;28;20101;-74
2022/10/17 01:12:17;;;;;;;;;;;;;;;15.88;65.52;96014.03;5032799;28;20011;-74
2022/10/17 01:14:49;;;;;;;;;;;;;;;15.82;65.57;96016.09;5031980;28;20473;-74
2022/10/17 01:17:24;;;;;;;;;;;;;;;15.80;65.92;96008.34;5031627;28;20014;-73
2022/10/17 01:20:07;;;;;;;;;;;;;;;15.77;65.83;96008.19;5045093;28;20016;-75
2022/10/17 01:22:35;;;;;;;;;;;;;;;15.76;66.05;96012.75;5052559;28;20504;-74
2022/10/17 01:25:19;;;;;;;;;;;;;;;15.74;66.01;96009.59;5050973;28;20010;-74
2022/10/17 01:28:23;;;;;;;;;;;;;;;15.71;65.95;96001.41;5032601;28;20474;-74
2022/10/17 01:31:07;;;;;;;;;;;;;;;15.71;65.48;95994.13;4935935;29;20094;-74
2022/10/17 01:33:47;;;;;;;;;;;;;;;15.71;65.64;95994.13;4951484;28;20026;-73
2022/10/17 01:36:29;;;;;;;;;;;;;;;15.70;66.23;96002.50;5006953;28;20109;-74
2022/10/17 01:39:03;;;;;;;;;;;;;;;15.71;66.05;96001.41;5031829;28;20010;-74
2022/10/17 01:41:40;;;;;;;;;;;;;;;15.75;66.22;96000.44;5026565;28;20377;-73
2022/10/17 01:44:40;;;;;;;;;;;;;;;15.75;65.74;96002.34;5031884;28;20009;-74
2022/10/17 01:47:12;;;;;;;;;;;;;;;15.74;65.74;96001.56;4935220;29;20007;-74
2022/10/17 01:49:38;;;;;;;;;;;;;;;15.47;66.79;96007.97;5028234;28;20024;-73
2022/10/17 01:52:12;;;;;;;;;;;;;;;15.56;66.51;96013.38;5051547;28;20144;-74
2022/10/17 01:55:00;;;;;;;;;;;;;;;15.58;66.11;96009.25;5049580;28;20104;-73
2022/10/17 01:57:30;;;;;;;;;;;;;;;15.58;65.92;96009.25;5035854;28;20255;-74
2022/10/17 01:59:55;;;;;;;;;;;;;;;15.55;66.05;96007.19;5029996;28;20103;-74
2022/10/17 02:02:22;;;;;;;;;;;;;;;15.53;65.71;96009.41;5031379;28;20682;-73
2022/10/17 02:04:48;;;;;;;;;;;;;;;15.51;65.76;96006.25;5035146;28;20018;-73
2022/10/17 02:07:13;;;;;;;;;;;;;;;15.51;66.13;96005.47;5030011;28;20021;-73
2022/10/17 02:09:39;;;;;;;;;;;;;;;15.48;66.22;96004.19;5031145;28;20009;-74
2022/10/17 02:12:13;;;;;;;;;;;;;;;15.46;66.21;96008.31;5031172;28;20013;-73
2022/10/17 02:14:38;;;;;;;;;;;;;;;15.43;66.09;96000.88;5030192;28;20112;-74
2022/10/17 02:17:03;;;;;;;;;;;;;;;15.41;65.93;96001.19;5025906;28;20104;-72
2022/10/17 02:19:48;;;;;;;;;;;;;;;15.39;66.11;96007.97;5027160;28;20013;-74
2022/10/17 02:22:16;;;;;;;;;;;;;;;15.36;65.86;96000.56;5049529;28;20389;-74
2022/10/17 02:24:49;;;;;;;;;;;;;;;15.32;66.04;96000.41;5049491;28;20095;-72
2022/10/17 02:27:33;;;;;;;;;;;;;;;15.30;66.21;96002.56;5038809;28;20009;-74
2022/10/17 02:30:11;;;;;;;;;;;;;;;15.27;66.11;96003.22;5031101;28;20006;-74
2022/10/17 02:32:39;;;;;;;;;;;;;;;15.22;66.61;95998.78;5029742;28;20018;-73
2022/10/17 02:35:06;;;;;;;;;;;;;;;15.20;66.83;96005.56;5041894;28;20013;-74
2022/10/17 02:37:33;;;;;;;;;;;;;;;15.20;66.63;96001.00;5032482;28;20674;-74
2022/10/17 02:39:59;;;;;;;;;;;;;;;15.18;66.37;96002.41;5031870;28;20465;-73
2022/10/17 02:42:25;;;;;;;;;;;;;;;15.17;66.13;96000.84;5029982;28;20059;-73
2022/10/17 02:44:51;;;;;;;;;;;;;;;15.16;65.81;95999.25;5029058;28;20010;-73
2022/10/17 02:47:35;;;;;;;;;;;;;;;15.16;66.00;95999.25;5029398;28;20014;-73
2022/10/17 02:50:00;;;;;;;;;;;;;;;15.09;65.85;95997.81;5040074;28;20112;-73
2022/10/17 02:52:34;;;;;;;;;;;;;;;15.09;66.02;95988.97;5032823;28;20045;-74
2022/10/17 02:55:05;;;;;;;;;;;;;;;15.13;66.30;96000.66;5030466;28;20455;-73
2022/10/17 02:57:35;;;;;;;;;;;;;;;15.13;66.15;95992.63;5028245;28;20678;-73
2022/10/17 03:00:03;;;;;;;;;;;;;;;15.11;66.51;95992.16;5029010;28;20058;-74
2022/10/17 03:02:37;;;;;;;;;;;;;;;15.08;66.34;95990.09;5029622;28;21350;-74
2022/10/17 03:05:02;;;;;;;;;;;;;;;15.04;66.45;95994.47;5028994;28;20021;-74
2022/10/17 03:07:27;;;;;;;;;;;;;;;15.02;66.53;96000.16;5029435;28;20402;-74
2022/10/17 03:09:52;;;;;;;;;;;;;;;14.98;66.95;95998.41;5029123;28;20010;-73
2022/10/17 03:12:18;;;;;;;;;;;;;;;15.05;66.72;96009.47;5030863;28;20006;-74
2022/10/17 03:14:43;;;;;;;;;;;;;;;14.92;67.51;96008.47;5044255;28;20466;-73
2022/10/17 03:17:08;;;;;;;;;;;;;;;15.02;67.04;96012.75;5029874;28;20014;-74
2022/10/17 03:19:33;;;;;;;;;;;;;;;15.03;66.61;96014.34;5032194;28;20021;-74
2022/10/17 03:21:59;;;;;;;;;;;;;;;15.06;66.43;96001.13;5050008;28;20064;-73
2022/10/17 03:24:25;;;;;;;;;;;;;;;15.04;66.12;96003.31;5048998;28;20056;-74
2022/10/17 03:26:50;;;;;;;;;;;;;;;15.02;66.36;95999.38;5046272;28;20514;-73
2022/10/17 03:29:15;;;;;;;;;;;;;;;15.02;66.31;96007.41;5029771;28;20113;-74
2022/10/17 03:31:40;;;;;;;;;;;;;;;15.02;66.10;96007.41;5030276;28;20009;-74
2022/10/17 03:34:05;;;;;;;;;;;;;;;15.02;66.27;96015.44;5029818;28;20100;-73
2022/10/17 03:36:31;;;;;;;;;;;;;;;14.91;66.43;96020.28;5032768;28;20014;-74
2022/10/17 03:38:56;;;;;;;;;;;;;;;14.94;66.79;96024.22;5029366;28;20095;-74
2022/10/17 03:41:21;;;;;;;;;;;;;;;14.90;66.71;96018.72;5028462;28;20382;-75
2022/10/17 03:43:46;;;;;;;;;;;;;;;14.89;66.27;96016.34;5030107;28;20016;-74
2022/10/17 03:46:11;;;;;;;;;;;;;;;14.87;66.53;96018.53;5027878;28;20064;-75
2022/10/17 03:48:37;;;;;;;;;;;;;;;14.84;67.13;96019.94;5029582;28;20038;-75
2022/10/17 03:51:06;;;;;;;;;;;;;;;14.87;67.03;96013.19;5027945;28;20010;-73
2022/10/17 03:53:32;;;;;;;;;;;;;;;14.42;68.50;96030.09;5028784;28;20064;-73
2022/10/17 03:56:08;;;;;;;;;;;;;;;14.48;68.69;96026.22;5030148;28;20010;-74
2022/10/17 03:58:33;;;;;;;;;;;;;;;14.61;67.91;96018.44;5028578;28;20014;-75
2022/10/17 04:01:02;;;;;;;;;;;;;;;14.78;67.50;96021.97;5028410;28;20564;-74
2022/10/17 04:03:27;;;;;;;;;;;;;;;14.75;66.61;96022.59;5030103;28;20006;-74
2022/10/17 04:05:53;;;;;;;;;;;;;;;14.51;67.54;96022.16;5027855;28;20471;-74
2022/10/17 04:08:18;;;;;;;;;;;;;;;14.73;67.31;96034.69;5029494;28;20010;-75
2022/10/17 04:10:43;;;;;;;;;;;;;;;14.77;66.88;96030.31;5028648;28;20014;-75
2022/10/17 04:13:08;;;;;;;;;;;;;;;14.79;66.44;96028.09;5029611;28;20009;-74
2022/10/17 04:15:34;;;;;;;;;;;;;;;14.76;66.68;96031.41;5029481;28;20088;-73
2022/10/17 04:17:59;;;;;;;;;;;;;;;14.72;66.57;96025.88;5028718;28;20018;-75
2022/10/17 04:20:24;;;;;;;;;;;;;;;14.73;66.31;96030.13;5038265;28;20359;-74
2022/10/17 04:22:49;;;;;;;;;;;;;;;14.70;66.09;96027.31;5042579;28;20014;-75
2022/10/17 04:25:14;;;;;;;;;;;;;;;14.65;66.47;96028.22;5033054;28;20013;-74
2022/10/17 04:27:40;;;;;;;;;;;;;;;14.62;65.97;96028.81;5030951;28;20017;-74
2022/10/17 04:30:05;;;;;;;;;;;;;;;14.51;66.40;96035.53;5032485;28;20017;-75
2022/10/17 04:32:30;;;;;;;;;;;;;;;14.38;66.79;96033.69;5033076;28;20018;-74
2022/10/17 04:34:55;;;;;;;;;;;;;;;14.18;67.66;96038.47;5034816;28;20022;-74
2022/10/17 04:37:21;;;;;;;;;;;;;;;13.87;69.33;96041.06;5052834;28;20405;-74
2022/10/17 04:39:46;;;;;;;;;;;;;;;14.15;69.14;96041.75;5049169;28;20016;-75
2022/10/17 04:42:11;;;;;;;;;;;;;;;14.30;67.92;96040.59;5032843;28;20425;-74
2022/10/17 04:44:36;;;;;;;;;;;;;;;14.27;67.54;96038.50;5033202;28;20010;-74
2022/10/17 04:47:01;;;;;;;;;;;;;;;14.08;68.24;96041.38;5032966;28;20159;-74
2022/10/17 04:49:27;;;;;;;;;;;;;;;14.17;68.21;96047.56;5032594;28;20050;-75
2022/10/17 04:51:52;;;;;;;;;;;;;;;14.24;67.80;96049.84;5030521;28;20068;-75
2022/10/17 04:54:17;;;;;;;;;;;;;;;14.37;67.50;96054.31;5032089;28;20013;-75
2022/10/17 04:56:42;;;;;;;;;;;;;;;14.41;67.20;96049.16;5032631;28;20029;-75
2022/10/17 04:59:08;;;;;;;;;;;;;;;14.42;67.24;96040.81;5031752;28;20014;-75
2022/10/17 05:01:33;;;;;;;;;;;;;;;14.28;67.32;96053.50;5032392;28;20014;-75
2022/10/17 05:03:58;;;;;;;;;;;;;;;14.40;67.26;96056.41;5031631;28;20020;-75
2022/10/17 05:06:26;;;;;;;;;;;;;;;14.20;66.78;96020.22;5043597;28;20033;-75
2022/10/17 05:08:51;;;;;;;;;;;;;;;14.45;66.72;96058.94;5051074;28;20469;-73
2022/10/17 05:11:18;;;;;;;;;;;;;;;14.43;66.22;96053.09;5052019;28;20060;-74
2022/10/17 05:13:43;;;;;;;;;;;;;;;14.43;66.10;96052.31;5052179;28;20097;-75
2022/10/17 05:16:09;;;;;;;;;;;;;;;14.41;66.41;96052.63;5031609;28;20097;-75
2022/10/17 05:18:34;;;;;;;;;;;;;;;14.39;66.15;96054.81;5030284;28;20014;-74
2022/10/17 05:21:01;;;;;;;;;;;;;;;14.37;66.03;96064.22;5032258;28;20076;-75
2022/10/17 05:23:28;;;;;;;;;;;;;;;14.35;66.18;96071.78;5031608;28;20018;-73
2022/10/17 05:25:54;;;;;;;;;;;;;;;14.30;66.04;96064.66;5032290;28;20096;-74
2022/10/17 05:28:19;;;;;;;;;;;;;;;14.29;66.14;96066.56;5030528;28;20068;-75
2022/10/17 05:30:45;;;;;;;;;;;;;;;14.29;66.47;96063.88;5030835;28;20006;-74
2022/10/17 05:33:10;;;;;;;;;;;;;;;14.27;66.45;96068.72;5031068;28;20360;-73
2022/10/17 05:35:35;;;;;;;;;;;;;;;14.26;66.18;96077.06;5034046;28;20104;-75
2022/10/17 05:38:00;;;;;;;;;;;;;;;14.23;66.34;96077.69;5050394;28;20016;-74
2022/10/17 05:40:25;;;;;;;;;;;;;;;14.25;66.29;96080.84;5051528;28;20060;-73
2022/10/17 05:42:51;;;;;;;;;;;;;;;14.27;65.98;96084.78;5050425;28;20024;-73
2022/10/17 05:45:16;;;;;;;;;;;;;;;14.28;65.75;96083.72;5042198;28;20013;-75
2022/10/17 05:47:41;;;;;;;;;;;;;;;14.30;65.81;96086.88;5031427;28;20093;-74
2022/10/17 05:50:07;;;;;;;;;;;;;;;14.32;65.93;96091.91;5031115;28;20020;-74
2022/10/17 05:52:32;;;;;;;;;;;;;;;14.34;66.04;96095.09;5048844;28;20115;-73
2022/10/17 05:54:57;;;;;;;;;;;;;;;14.29;66.19;96096.00;5049959;28;20014;-73
2022/10/17 05:57:25;;;;;;;;;;;;;;;14.32;66.25;96108.75;5045112;28;20371;-71
2022/10/17 05:59:51;;;;;;;;;;;;;;;14.36;66.06;96116.97;5031630;28;20006;-69
2022/10/17 06:02:16;;;;;;;;;;;;;;;14.39;66.19;96105.69;5031262;28;20041;-70
2022/10/17 06:04:44;;;;;;;;;;;;;;;14.41;65.66;96114.19;5029784;28;20010;-70
2022/10/17 06:07:10;;;;;;;;;;;;;;;14.43;66.01;96116.53;5026855;28;20072;-70
2022/10/17 06:09:37;;;;;;;;;;;;;;;14.46;65.81;96119.41;5012100;28;20111;-70
2022/10/17 06:12:02;;;;;;;;;;;;;;;14.51;66.12;96121.22;5027408;28;20013;-70
2022/10/17 06:14:28;;;;;;;;;;;;;;;14.57;66.05;96122.66;5031094;28;20381;-72
2022/10/17 06:16:53;;;;;;;;;;;;;;;14.60;65.49;96119.38;5030743;28;20045;-70
2022/10/17 06:19:18;;;;;;;;;;;;;;;14.64;65.49;96119.53;5028593;28;20445;-71
2022/10/17 06:21:43;;;;;;;;;;;;;;;14.67;65.70;96118.94;5030874;28;20040;-68
2022/10/17 06:24:09;;;;;;;;;;;;;;;14.71;65.76;96119.94;5031025;28;20366;-73
2022/10/17 06:26:34;;;;;;;;;;;;;;;14.71;65.96;96111.88;5030722;28;20451;-74
2022/10/17 06:28:59;;;;;;;;;;;;;;;14.80;66.16;96110.84;5017309;28;20766;-68
2022/10/17 06:31:24;;;;;;;;;;;;;;;14.90;65.52;96115.16;5026308;28;20054;-71
2022/10/17 06:33:49;;;;;;;;;;;;;;;14.98;65.67;96113.59;5026442;28;20065;-68
2022/10/17 06:36:15;;;;;;;;;;;;;;;15.04;65.02;96107.78;5018902;28;20014;-68
2022/10/17 06:38:40;;;;;;;;;;;;;;;15.09;65.00;96112.25;5038465;28;20010;-71
2022/10/17 06:41:08;;;;;;;;;;;;;;;15.16;65.37;96119.84;5030143;28;20041;-72
2022/10/17 06:43:35;;;;;;;;;;;;;;;15.27;65.66;96118.47;5050949;28;20481;-78
2022/10/17 06:46:00;;;;;;;;;;;;;;;15.37;65.09;96118.19;5050549;28;20005;-69
2022/10/17 06:48:25;;;;;;;;;;;;;;;15.53;64.86;96122.03;5049726;28;20017;-69
2022/10/17 06:50:51;;;;;;;;;;;;;;;15.67;64.50;96129.22;5035131;28;20460;-70
2022/10/17 06:53:16;;;;;;;;;;;;;;;15.79;63.78;96130.16;5039630;28;20592;-68
2022/10/17 06:55:41;;;;;;;;;;;;;;;15.90;63.44;96140.59;5049126;28;20010;-71
2022/10/17 06:58:07;;;;;;;;;;;;;;;16.02;63.41;96138.91;5033150;28;20028;-71
2022/10/17 07:00:32;;;;;;;;;;;;;;;16.15;63.17;96139.06;5028858;28;20009;-70
2022/10/17 07:02:57;;;;;;;;;;;;;;;16.26;62.70;96151.06;5028067;28;20131;-70
2022/10/17 07:05:22;;;;;;;;;;;;;;;16.35;62.34;96144.59;5029815;28;20049;-71
2022/10/17 07:07:47;;;;;;;;;;;;;;;16.45;62.32;96151.53;5029147;28;20386;-68
2022/10/17 07:10:13;;;;;;;;;;;;;;;16.54;62.40;96152.34;5033418;28;20024;-71
2022/10/17 07:12:38;;;;;;;;;;;;;;;16.62;62.66;96154.22;5048384;28;20104;-71
2022/10/17 07:15:04;;;;;;;;;;;;;;;16.71;62.04;96151.56;5034089;28;20014;-77
2022/10/17 07:17:29;;;;;;;;;;;;;;;16.84;61.66;96157.88;5030063;28;20435;-70
2022/10/17 07:19:54;;;;;;;;;;;;;;;16.89;61.55;96165.78;5029686;28;20006;-69
2022/10/17 07:22:20;;;;;;;;;;;;;;;17.02;61.24;96164.78;5028995;28;20101;-68
2022/10/17 07:24:45;;;;;;;;;;;;;;;17.12;61.20;96167.13;5028197;28;20010;-69
2022/10/17 07:27:11;;;;;;;;;;;;;;;17.17;60.52;96176.13;5022412;28;20076;-69
2022/10/17 07:29:36;;;;;;;;;;;;;;;17.29;60.73;96176.25;5029372;28;20034;-69
2022/10/17 07:32:05;;;;;;;;;;;;;;;17.44;60.41;96180.31;5036846;28;20010;-70
2022/10/17 07:34:30;;;;;;;;;;;;;;;17.50;59.88;96184.41;5012746;28;20352;-69
2022/10/17 07:36:55;;;;;;;;;;;;;;;17.09;59.39;96183.88;5025910;28;20037;-70
2022/10/17 07:39:21;;;;;;;;;;;;;;;17.37;59.37;96189.69;5035329;28;20005;-71
2022/10/17 07:41:47;;;;;;;;;;;;;;;16.94;59.42;96188.97;5029756;28;20076;-70
2022/10/17 07:44:14;;;;;;;;;;;;;;;17.15;59.16;96192.59;5027831;28;20017;-70
2022/10/17 07:46:39;;;;;;;;;;;;;;;17.54;58.45;96193.41;5040822;28;20047;-70
2022/10/17 07:49:04;;;;;;;;;;;;;;;17.77;57.58;96191.31;5047909;28;20053;-71
2022/10/17 07:51:29;;;;;;;;;;;;;;;18.05;56.42;96188.91;5033013;28;20546;-71
2022/10/17 07:53:55;;;;;;;;;;;;;;;18.21;56.16;96181.06;5012888;28;20002;-71
2022/10/17 07:56:23;;;;;;;;;;;;;;;17.83;56.85;96187.31;5042344;28;20014;-71
2022/10/17 07:58:48;;;;;;;;;;;;;;;18.11;56.70;96193.78;5013286;28;20006;-74
2022/10/17 08:01:14;;;;;;;;;;;;;;;18.25;56.29;96192.75;5041092;28;20025;-74
2022/10/17 08:03:40;;;;;;;;;;;;;;;18.40;56.02;96202.97;5031978;28;20014;-75
2022/10/17 08:06:05;;;;;;;;;;;;;;;18.49;55.64;96197.50;5033144;28;20001;-74
2022/10/17 08:08:30;;;;;;;;;;;;;;;18.32;56.01;96196.50;5030581;28;20014;-75
2022/10/17 08:11:00;;;;;;;;;;;;;;;18.86;55.88;96198.50;5033681;28;20008;-75
2022/10/17 08:13:25;;;;;;;;;;;;;;;18.94;54.90;96203.03;5033407;28;20010;-75
2022/10/17 08:15:50;;;;;;;;;;;;;;;18.96;55.16;96198.09;5033519;28;20006;-75
2022/10/17 08:18:17;;;;;;;;;;;;;;;19.11;54.47;96197.47;5032037;28;20054;-75
2022/10/17 08:20:42;;;;;;;;;;;;;;;19.58;54.22;96194.41;5032679;28;20014;-74
2022/10/17 08:23:08;;;;;;;;;;;;;;;19.41;53.96;96194.63;5033277;28;20024;-74
2022/10/17 08:25:33;;;;;;;;;;;;;;;19.46;53.46;96197.09;5033238;28;20109;-75
2022/10/17 08:27:58;;;;;;;;;;;;;;;19.13;53.29;96197.13;5032745;28;20108;-75
2022/10/17 08:30:23;;;;;;;;;;;;;;;19.53;53.71;96197.34;5032389;28;20409;-75
2022/10/17 08:32:49;;;;;;;;;;;;;;;20.08;52.46;96201.44;5032970;28;20530;-75
2022/10/17 08:35:14;;;;;;;;;;;;;;;20.22;51.64;96190.28;5031597;28;20018;-74
2022/10/17 08:37:39;;;;;;;;;;;;;;;20.35;51.02;96191.81;5032434;28;20424;-74
2022/10/17 08:40:06;;;;;;;;;;;;;;;19.98;50.62;96191.88;5031461;28;20065;-74
2022/10/17 08:42:40;;;;;;;;;;;;;;;20.07;50.22;96190.97;5032785;28;20059;-75
2022/10/17 08:45:17;;;;;;;;;;;;;;;20.21;50.31;96188.69;5032859;28;20006;-75
2022/10/17 08:47:56;;;;;;;;;;;;;;;19.62;50.77;96200.75;5032756;28;20009;-74
2022/10/17 08:50:21;;;;;;;;;;;;;;;19.39;51.49;96205.72;5031189;28;20064;-75
2022/10/17 08:52:51;;;;;;;;;;;;;;;19.86;50.37;96191.91;5033857;28;20022;-75
2022/10/17 08:55:21;;;;;;;;;;;;;;;20.02;50.16;96202.03;5032580;28;20013;-74
2022/10/17 08:57:47;;;;;;;;;;;;;;;20.01;50.35;96195.81;5031858;28;20014;-74
2022/10/17 09:00:17;;;;;;;;;;;;;;;20.38;49.72;96201.97;5031974;28;20006;-75
2022/10/17 09:02:48;;;;;;;;;;;;;;;20.57;49.18;96198.66;5026873;28;20014;-75
2022/10/17 09:05:32;;;;;;;;;;;;;;;20.58;49.80;96196.78;5011282;28;20105;-72
2022/10/17 09:08:07;;;;;;;;;;;;;;;21.21;48.66;96195.03;5031791;28;20017;-74
2022/10/17 09:10:51;;;;;;;;;;;;;;;21.02;48.21;96197.63;5051902;28;20005;-74
2022/10/17 09:13:22;;;;;;;;;;;;;;;21.52;47.75;96197.03;5052258;28;20056;-74
2022/10/17 09:15:47;;;;;;;;;;;;;;;21.23;46.63;96195.47;5051916;28;20010;-73
2022/10/17 09:18:19;;;;;;;;;;;;;;;20.89;47.51;96191.50;5051744;28;20490;-75
2022/10/17 09:20:47;;;;;;;;;;;;;;;20.70;47.66;96200.22;5034343;28;20014;-74
2022/10/17 09:23:18;;;;;;;;;;;;;;;21.12;46.96;96201.75;5041565;28;20426;-74
2022/10/17 09:25:44;;;;;;;;;;;;;;;20.86;46.63;96208.38;5050444;28;20017;-75
2022/10/17 09:28:16;;;;;;;;;;;;;;;21.10;46.96;96201.31;5051756;28;20037;-74
2022/10/17 09:30:43;;;;;;;;;;;;;;;20.93;46.87;96207.78;5051635;28;20006;-74
2022/10/17 09:33:16;;;;;;;;;;;;;;;20.81;46.65;96216.75;5030988;28;20486;-73
2022/10/17 09:35:42;;;;;;;;;;;;;;;21.59;45.35;96201.84;5031939;28;20092;-73
2022/10/17 09:38:18;;;;;;;;;;;;;;;20.99;46.83;96207.22;5030135;28;20534;-72
2022/10/17 09:40:45;;;;;;;;;;;;;;;21.14;46.34;96213.81;5029781;28;20401;-70
2022/10/17 09:43:12;;;;;;;;;;;;;;;21.37;45.84;96210.56;5030309;28;20018;-73
2022/10/17 09:45:42;;;;;;;;;;;;;;;21.21;46.20;96207.78;5031682;28;20374;-75
2022/10/17 09:48:13;;;;;;;;;;;;;;;21.68;44.86;96202.47;5031354;28;20424;-71
2022/10/17 09:50:39;;;;;;;;;;;;;;;22.39;44.04;96206.06;5030282;28;20017;-72
2022/10/17 09:53:22;;;;;;;;;;;;;;;21.94;45.08;96209.25;5038100;28;20013;-69
2022/10/17 09:55:57;;;;;;;;;;;;;;;22.11;44.42;96211.66;5050009;28;20155;-71
2022/10/17 09:58:23;;;;;;;;;;;;;;;21.98;43.82;96218.25;5034372;28;20010;-72
2022/10/17 10:00:48;;;;;;;;;;;;;;;21.85;45.14;96217.56;5012473;28;20022;-72
2022/10/17 10:03:14;;;;;;;;;;;;;;;21.95;44.71;96218.94;5013374;28;20020;-73
2022/10/17 10:05:40;;;;;;;;;;;;;;;21.85;43.92;96208.66;5019819;28;20483;-71
2022/10/17 10:08:12;;;;;;;;;;;;;;;21.80;44.70;96218.63;5022048;28;20017;-71
2022/10/17 10:10:41;;;;;;;;;;;;;;;22.28;44.70;96218.59;5019832;28;20107;-71
2022/10/17 10:13:13;;;;;;;;;;;;;;;22.69;43.41;96217.19;5019715;28;20088;-70
2022/10/17 10:15:40;;;;;;;;;;;;;;;22.41;44.50;96219.25;5024109;28;20018;-71
2022/10/17 10:18:28;;;;;;;;;;;;;;;22.42;44.38;96223.53;5030644;28;20437;-72
2022/10/17 10:21:02;;;;;;;;;;;;;;;22.82;43.53;96215.09;5019769;28;20084;-73
2022/10/17 10:23:28;;;;;;;;;;;;;;;22.78;43.54;96222.41;5033891;28;20040;-73
2022/10/17 10:25:55;;;;;;;;;;;;;;;22.66;42.84;96217.88;5030559;28;20089;-73
2022/10/17 10:28:22;;;;;;;;;;;;;;;22.57;43.20;96217.28;5029101;28;20057;-72
2022/10/17 10:30:49;;;;;;;;;;;;;;;23.41;42.35;96213.97;5029345;28;20080;-72
2022/10/17 10:33:18;;;;;;;;;;;;;;;23.45;41.31;96222.19;5030518;28;20025;-72
2022/10/17 10:35:50;;;;;;;;;;;;;;;23.02;42.16;96216.72;5028607;28;20014;-73
2022/10/17 10:38:16;;;;;;;;;;;;;;;23.70;40.59;96220.72;5029276;28;20014;-70
2022/10/17 10:40:46;;;;;;;;;;;;;;;23.49;40.58;96221.09;5030479;28;20012;-69
2022/10/17 10:43:30;;;;;;;;;;;;;;;23.33;41.05;96215.75;5029169;28;20020;-69
2022/10/17 10:45:56;;;;;;;;;;;;;;;23.45;40.91;96220.25;5018636;28;20458;-69
2022/10/17 10:48:21;;;;;;;;;;;;;;;23.55;40.80;96216.16;5020951;28;20008;-69
2022/10/17 10:50:56;;;;;;;;;;;;;;;23.75;40.38;96211.44;5030312;28;20013;-69
2022/10/17 10:53:28;;;;;;;;;;;;;;;23.90;40.58;96210.53;5026006;28;20095;-69
2022/10/17 10:55:58;;;;;;;;;;;;;;;23.35;40.24;96212.69;5017844;28;20013;-69
2022/10/17 10:58:40;;;;;;;;;;;;;;;23.79;39.81;96212.28;5019831;28;20805;-69
2022/10/17 11:01:11;;;;;;;;;;;;;;;23.96;38.80;96211.03;5022017;28;20010;-68
2022/10/17 11:03:52;;;;;;;;;;;;;;;23.80;40.76;96214.66;5030161;28;20068;-68
2022/10/17 11:06:21;;;;;;;;;;;;;;;23.67;40.34;96212.50;5028011;28;20720;-69
2022/10/17 11:08:48;;;;;;;;;;;;;;;23.65;39.98;96214.78;5036891;28;20607;-69
2022/10/17 11:11:22;;;;;;;;;;;;;;;24.34;39.16;96207.34;5048337;28;20394;-68
2022/10/17 11:13:52;;;;;;;;;;;;;;;24.59;38.97;96196.81;5049690;28;20013;-68
2022/10/17 11:16:17;;;;;;;;;;;;;;;24.02;39.89;96199.50;5049667;28;20103;-67
2022/10/17 11:18:58;;;;;;;;;;;;;;;23.98;40.26;96204.06;5009191;28;20598;-68
2022/10/17 11:21:33;;;;;;;;;;;;;;;24.45;39.37;96199.34;5010267;28;20434;-68
2022/10/17 11:24:13;;;;;;;;;;;;;;;24.75;38.17;96185.75;5033140;28;20040;-68
2022/10/17 11:26:45;;;;;;;;;;;;;;;24.26;39.53;96206.47;5022685;28;20521;-70
2022/10/17 11:29:11;;;;;;;;;;;;;;;24.84;38.60;96202.59;5031482;28;20009;-68
2022/10/17 11:31:40;;;;;;;;;;;;;;;24.62;37.93;96199.59;5033773;28;20696;-68
2022/10/17 11:34:18;;;;;;;;;;;;;;;24.83;38.04;96196.38;5033106;28;20037;-69
2022/10/17 11:36:45;;;;;;;;;;;;;;;25.04;37.70;96197.78;5032568;28;20108;-69
2022/10/17 11:39:17;;;;;;;;;;;;;;;24.68;38.42;96194.63;5032225;28;20020;-69
2022/10/17 11:41:47;;;;;;;;;;;;;;;24.71;38.34;96191.16;5033938;28;20033;-68
2022/10/17 11:44:45;;;;;;;;;;;;;;;25.17;37.57;96193.66;5031514;28;20025;-69
2022/10/17 11:47:22;;;;;;;;;;;;;;;25.02;37.79;96197.34;4999629;28;20018;-69
2022/10/17 11:50:01;;;;;;;;;;;;;;;25.31;36.97;96188.38;5033166;28;20009;-69
2022/10/17 11:52:32;;;;;;;;;;;;;;;25.58;36.44;96196.41;5031059;28;20486;-68
2022/10/17 11:55:00;;;;;;;;;;;;;;;25.57;36.73;96195.63;5034311;28;20871;-69
2022/10/17 11:57:25;;;;;;;;;;;;;;;25.65;35.89;96197.25;5033504;28;20010;-69
2022/10/17 12:00:05;;;;;;;;;;;;;;;25.04;35.39;96195.84;5031419;28;20015;-69
2022/10/17 12:02:42;;;;;;;;;;;;;;;24.81;35.33;96190.50;5032035;28;20108;-69
2022/10/17 12:05:12;;;;;;;;;;;;;;;25.24;34.80;96182.06;5031896;28;20481;-69
2022/10/17 12:07:44;;;;;;;;;;;;;;;25.29;34.88;96193.41;5032228;28;20010;-69
2022/10/17 12:10:24;;;;;;;;;;;;;;;25.25;34.87;96191.81;5037113;28;20517;-69
2022/10/17 12:12:49;;;;;;;;;;;;;;;25.03;35.00;96190.75;5033086;28;20006;-69
2022/10/17 12:15:22;;;;;;;;;;;;;;;25.32;34.34;96181.75;5032954;28;20013;-69
2022/10/17 12:18:01;;;;;;;;;;;;;;;25.79;34.83;96177.53;5031875;28;20399;-69
2022/10/17 12:20:27;;;;;;;;;;;;;;;26.47;34.64;96182.72;5031741;28;20014;-69
2022/10/17 12:22:53;;;;;;;;;;;;;;;26.64;33.61;96185.53;5031578;28;20446;-70
2022/10/17 12:25:21;;;;;;;;;;;;;;;26.82;32.88;96179.34;5045679;28;20075;-69
2022/10/17 12:27:47;;;;;;;;;;;;;;;26.88;32.54;96177.84;5051640;28;20053;-72
2022/10/17 12:30:23;;;;;;;;;;;;;;;26.99;32.64;96177.88;5052571;28;20013;-70
2022/10/17 12:33:07;;;;;;;;;;;;;;;27.16;32.48;96177.94;5039796;28;20013;-70
2022/10/17 12:35:33;;;;;;;;;;;;;;;27.24;31.41;96180.72;5028212;28;20113;-69
2022/10/17 12:38:03;;;;;;;;;;;;;;;26.55;31.28;96173.38;5012769;28;20102;-69
2022/10/17 12:40:34;;;;;;;;;;;;;;;26.39;31.90;96173.66;5046443;28;20014;-70
2022/10/17 12:43:00;;;;;;;;;;;;;;;26.42;31.36;96167.50;5032457;28;20018;-70
2022/10/17 12:45:45;;;;;;;;;;;;;;;27.09;31.01;96168.97;5030538;28;20020;-69
2022/10/17 12:48:10;;;;;;;;;;;;;;;26.76;30.70;96170.75;5031405;28;20013;-69
2022/10/17 12:50:54;;;;;;;;;;;;;;;27.40;30.70;96172.94;5032560;28;20105;-69
2022/10/17 12:53:23;;;;;;;;;;;;;;;27.10;29.13;96178.72;5033135;28;20055;-69
2022/10/17 12:55:50;;;;;;;;;;;;;;;26.29;28.87;96180.63;5046116;28;20129;-69